createdAt,value
2022-10-13T17:59:58.106Z,36.05
2022-10-13T18:01:12.885Z,42.63
2022-10-13T18:02:19.100Z,43.35
2022-10-13T18:03:21.605Z,48.65
2022-10-13T18:04:28.902Z,48.67
2022-10-13T18:05:31.514Z,58.47
2022-10-13T18:06:40.057Z,52.45
2022-10-13T18:07:44.640Z,35.20
2022-10-13T18:08:47.142Z,57.03
2022-10-13T18:09:53.866Z,52.50
2022-10-13T18:11:11.245Z,45.13
2022-10-13T18:12:16.031Z,42.53
2022-10-13T18:13:18.065Z,45.88
2022-10-13T18:14:23.830Z,58.45
2022-10-13T18:15:28.557Z,54.78
2022-10-13T18:16:33.190Z,67.22
2022-10-13T18:17:37.759Z,74.18
2022-10-13T18:18:40.063Z,97.35
2022-10-13T18:19:45.409Z,147.43
2022-10-13T18:20:47.435Z,128.90
2022-10-13T18:21:53.128Z,161.75
2022-10-13T18:22:55.279Z,164.48
2022-10-13T18:24:02.118Z,136.88
2022-10-13T18:25:04.535Z,172.95
2022-10-13T18:26:11.977Z,144.57
2022-10-13T18:27:16.633Z,113.97
2022-10-13T18:28:18.719Z,87.18
2022-10-13T18:29:23.380Z,103.00
2022-10-13T18:30:28.268Z,91.90
2022-10-13T18:31:37.381Z,73.05
2022-10-13T18:32:42.231Z,81.30
2022-10-13T18:33:44.711Z,74.57
2022-10-13T18:34:49.323Z,64.47
2022-10-13T18:35:51.352Z,46.33
2022-10-13T18:36:56.926Z,71.82
2022-10-13T18:37:59.082Z,51.88
2022-10-13T18:39:06.279Z,64.88
2022-10-13T18:40:10.109Z,80.68
2022-10-13T18:41:15.493Z,51.45
2022-10-13T18:42:20.121Z,52.20
2022-10-13T18:43:22.359Z,64.93
2022-10-13T18:44:27.651Z,56.47
2022-10-13T18:45:30.918Z,54.15
2022-10-13T18:46:39.735Z,60.97
2022-10-13T18:47:44.382Z,64.47
2022-10-13T18:48:46.520Z,64.97
2022-10-13T18:49:54.040Z,67.72
2022-10-13T18:50:56.523Z,56.78
2022-10-13T18:52:01.936Z,50.20
2022-10-13T18:53:03.988Z,47.42
2022-10-13T18:54:09.522Z,51.30
2022-10-13T18:55:14.211Z,68.40
2022-10-13T18:56:17.836Z,47.42
2022-10-13T18:57:22.831Z,55.35
2022-10-13T18:58:25.143Z,48.65
2022-10-13T18:59:30.003Z,54.25
2022-10-13T19:00:32.182Z,52.53
2022-10-13T19:01:41.037Z,57.33
2022-10-13T19:02:45.712Z,64.13
2022-10-13T19:03:51.849Z,55.30
2022-10-13T19:04:54.137Z,55.17
2022-10-13T19:05:59.238Z,50.08
2022-10-13T19:07:04.392Z,68.90
2022-10-13T19:08:09.688Z,62.05
2022-10-13T19:09:17.536Z,47.33
2022-10-13T19:10:22.384Z,53.65
2022-10-13T19:11:27.675Z,41.25
2022-10-13T19:12:32.377Z,48.03
2022-10-13T19:13:34.514Z,47.13
2022-10-13T19:14:39.170Z,42.67
2022-10-13T19:15:41.170Z,38.53
2022-10-13T19:16:48.535Z,46.88
2022-10-13T19:17:50.567Z,63.28
2022-10-13T19:18:55.290Z,52.15
2022-10-13T19:19:59.885Z,46.45
2022-10-13T19:21:02.140Z,44.30
2022-10-13T19:22:07.771Z,47.42
2022-10-13T19:23:14.649Z,46.17
2022-10-13T19:24:19.290Z,38.17
2022-10-13T19:25:21.407Z,59.38
2022-10-13T19:26:29.891Z,53.65
2022-10-13T19:27:34.496Z,45.30
2022-10-13T19:28:36.811Z,40.03
2022-10-13T19:29:41.452Z,47.22
2022-10-13T19:30:46.586Z,50.92
2022-10-13T19:31:53.821Z,51.85
2022-10-13T19:32:55.833Z,57.33
2022-10-13T19:34:01.468Z,64.80
2022-10-13T19:35:09.170Z,59.92
2022-10-13T19:36:13.629Z,62.85
2022-10-13T19:37:19.332Z,63.05
2022-10-13T19:38:21.654Z,62.78
2022-10-13T19:39:27.888Z,82.43
2022-10-13T19:40:29.935Z,55.80
2022-10-13T19:41:36.257Z,66.43
2022-10-13T19:42:38.588Z,73.25
2022-10-13T19:43:43.215Z,70.75
